createdAt,value
2022-12-01T00:02:19.926Z,68.57
2022-12-01T00:04:48.743Z,72.35
2022-12-01T00:07:16.425Z,76.22
2022-12-01T00:10:02.895Z,79.40
2022-12-01T00:12:31.156Z,83.32
2022-12-01T00:15:00.989Z,86.18
2022-12-01T00:17:29.984Z,90.20
2022-12-01T00:19:58.131Z,93.93
2022-12-01T00:22:25.796Z,97.60
2022-12-01T00:24:54.776Z,101.75
2022-12-01T00:27:22.447Z,108.25
2022-12-01T00:29:50.379Z,108.40
2022-12-01T00:32:18.172Z,114.80
2022-12-01T00:34:45.833Z,117.00
2022-12-01T00:37:13.531Z,124.05
2022-12-01T00:39:41.200Z,127.43
2022-12-01T00:42:13.468Z,132.25
2022-12-01T00:44:41.343Z,135.68
2022-12-01T00:47:08.982Z,140.73
2022-12-01T00:49:36.629Z,142.60
2022-12-01T00:52:04.292Z,151.10
2022-12-01T00:54:32.059Z,155.52
2022-12-01T00:57:00.292Z,162.90
2022-12-01T00:59:29.287Z,161.85
2022-12-01T01:01:57.039Z,172.32
2022-12-01T01:04:24.751Z,181.98
2022-12-01T01:06:52.451Z,185.07
2022-12-01T01:09:20.121Z,191.85
2022-12-01T01:11:48.159Z,198.85
2022-12-01T01:14:15.978Z,210.45
2022-12-01T01:16:45.029Z,219.05
2022-12-01T01:19:12.769Z,221.45
2022-12-01T01:21:40.547Z,235.02
2022-12-01T01:24:08.368Z,245.25
2022-12-01T01:26:37.201Z,249.57
2022-12-01T01:29:06.014Z,259.75
2022-12-01T01:31:33.744Z,268.75
2022-12-01T01:34:03.507Z,276.63
2022-12-01T01:36:31.218Z,280.45
2022-12-01T01:38:58.908Z,288.77
2022-12-01T01:41:26.582Z,296.83
2022-12-01T01:43:55.185Z,301.77
2022-12-01T01:46:23.770Z,309.58
2022-12-01T01:48:53.335Z,321.65
2022-12-01T01:51:24.298Z,324.58
2022-12-01T01:53:52.931Z,328.20
2022-12-01T01:56:20.619Z,341.23
2022-12-01T01:58:48.271Z,346.58
2022-12-01T02:01:16.004Z,351.70
2022-12-01T02:03:43.727Z,352.52
2022-12-01T02:06:11.489Z,362.48
2022-12-01T02:08:40.495Z,360.52
2022-12-01T02:11:23.296Z,363.10
2022-12-01T02:13:53.066Z,374.77
2022-12-01T02:16:24.111Z,368.23
2022-12-01T02:18:53.379Z,388.38
2022-12-01T02:21:36.759Z,390.23
2022-12-01T02:24:20.106Z,386.77
2022-12-01T02:26:50.046Z,392.48
2022-12-01T02:29:42.830Z,407.05
2022-12-01T02:32:16.453Z,405.17
2022-12-01T02:34:46.739Z,395.55
2022-12-01T02:37:24.783Z,410.42
2022-12-01T02:39:55.339Z,412.95
2022-12-01T02:42:39.989Z,417.83
2022-12-01T02:45:11.201Z,418.90
2022-12-01T02:47:40.193Z,418.60
2022-12-01T02:50:08.891Z,422.20
2022-12-01T02:52:36.576Z,423.17
2022-12-01T02:55:04.352Z,427.70
2022-12-01T02:57:32.010Z,429.42
2022-12-01T02:59:59.671Z,435.80
2022-12-01T03:02:30.999Z,433.67
2022-12-01T03:05:01.672Z,437.48
2022-12-01T03:07:50.042Z,444.05
2022-12-01T03:10:20.787Z,437.17
2022-12-01T03:12:53.945Z,440.90
2022-12-01T03:15:27.021Z,439.13
2022-12-01T03:17:57.486Z,445.02
2022-12-01T03:20:28.659Z,442.20
2022-12-01T03:22:57.535Z,452.10
2022-12-01T03:25:26.226Z,449.98
2022-12-01T03:28:20.302Z,454.58
2022-12-01T03:30:44.114Z,452.98
2022-12-01T03:33:13.889Z,443.60
2022-12-01T03:35:44.873Z,457.05
2022-12-01T03:38:14.901Z,453.83
2022-12-01T03:40:42.547Z,451.83
2022-12-01T03:43:11.721Z,458.98
2022-12-01T03:45:42.702Z,450.88
2022-12-01T03:48:10.352Z,448.38
2022-12-01T03:50:39.870Z,457.63
2022-12-01T03:53:11.301Z,455.05
2022-12-01T03:55:41.577Z,449.05
2022-12-01T03:58:10.834Z,462.83
2022-12-01T04:00:38.507Z,449.77
2022-12-01T04:03:06.298Z,454.77
2022-12-01T04:05:34.554Z,443.55
2022-12-01T04:08:02.296Z,445.65
2022-12-01T04:10:32.928Z,449.27
2022-12-01T04:12:59.742Z,444.90
2022-12-01T04:15:27.833Z,448.48
2022-12-01T04:17:55.599Z,442.40
2022-12-01T04:20:23.292Z,437.23
2022-12-01T04:22:50.947Z,445.80
2022-12-01T04:25:18.746Z,441.95
2022-12-01T04:27:47.738Z,441.55
2022-12-01T04:30:15.757Z,441.63
2022-12-01T04:32:44.060Z,441.13
2022-12-01T04:35:12.822Z,442.45
2022-12-01T04:37:40.918Z,443.20
2022-12-01T04:40:09.439Z,447.10
2022-12-01T04:42:37.238Z,443.67
2022-12-01T04:45:07.225Z,434.50
2022-12-01T04:47:34.959Z,431.95
2022-12-01T04:50:02.614Z,435.27
2022-12-01T04:52:35.016Z,440.08
2022-12-01T04:55:03.414Z,431.23
2022-12-01T04:57:31.105Z,423.17
2022-12-01T04:59:58.778Z,429.98
2022-12-01T05:02:27.828Z,425.92
2022-12-01T05:04:55.573Z,423.98
2022-12-01T05:07:23.322Z,425.13
2022-12-01T05:09:51.272Z,426.10
2022-12-01T05:12:19.389Z,423.10
2022-12-01T05:14:47.115Z,423.60
2022-12-01T05:17:14.785Z,418.70
2022-12-01T05:20:01.331Z,415.63
2022-12-01T05:23:03.430Z,413.42
2022-12-01T05:25:16.790Z,410.75
2022-12-01T05:27:44.435Z,403.73
2022-12-01T05:30:13.027Z,405.92
2022-12-01T05:32:40.757Z,399.92
2022-12-01T05:35:10.435Z,401.63
2022-12-01T05:37:38.192Z,398.48
2022-12-01T05:40:07.185Z,401.75
2022-12-01T05:42:34.881Z,400.77
2022-12-01T05:45:02.629Z,393.77
2022-12-01T05:47:30.340Z,399.90
2022-12-01T05:50:02.206Z,389.60
2022-12-01T05:52:35.579Z,388.13
2022-12-01T05:55:03.357Z,377.05
2022-12-01T05:57:31.546Z,375.35
2022-12-01T05:59:59.229Z,379.67
2022-12-01T06:02:27.595Z,372.77
2022-12-01T06:04:55.813Z,375.52
2022-12-01T06:07:25.605Z,374.08
2022-12-01T06:09:54.697Z,377.45
2022-12-01T06:12:22.407Z,375.27
2022-12-01T06:14:50.129Z,370.90
2022-12-01T06:17:17.827Z,363.30
2022-12-01T06:19:47.732Z,361.52
2022-12-01T06:22:15.760Z,360.15
2022-12-01T06:24:43.517Z,362.33
2022-12-01T06:27:12.580Z,351.63
2022-12-01T06:29:42.198Z,347.38
2022-12-01T06:32:10.701Z,349.52
2022-12-01T06:34:38.488Z,343.65
2022-12-01T06:37:06.366Z,346.98
2022-12-01T06:39:34.067Z,336.73
2022-12-01T06:42:01.797Z,339.27
2022-12-01T06:44:30.788Z,335.42
2022-12-01T06:46:58.468Z,336.63
2022-12-01T06:49:26.159Z,330.25
2022-12-01T06:51:54.563Z,333.35
2022-12-01T06:54:22.231Z,330.63
2022-12-01T06:56:49.910Z,327.00
2022-12-01T06:59:17.677Z,324.33
2022-12-01T07:01:47.082Z,319.27
2022-12-01T07:04:14.835Z,325.15
2022-12-01T07:06:42.648Z,319.10
2022-12-01T07:09:10.420Z,315.17
2022-12-01T07:11:38.553Z,314.58
2022-12-01T07:14:06.341Z,312.10
2022-12-01T07:16:34.071Z,297.35
2022-12-01T07:19:03.719Z,306.20
2022-12-01T07:21:31.397Z,307.95
2022-12-01T07:23:59.133Z,298.83
2022-12-01T07:26:26.810Z,300.10
2022-12-01T07:28:54.516Z,291.05
2022-12-01T07:31:22.263Z,292.45
2022-12-01T07:33:49.967Z,295.75
2022-12-01T07:36:19.035Z,287.90
2022-12-01T07:38:46.770Z,288.02
2022-12-01T07:41:15.316Z,287.50
2022-12-01T07:43:43.085Z,281.90
2022-12-01T07:46:12.871Z,283.58
2022-12-01T07:48:43.685Z,279.60
2022-12-01T07:51:12.078Z,272.42
2022-12-01T07:53:41.064Z,272.33
2022-12-01T07:56:09.389Z,273.90
2022-12-01T07:58:38.120Z,263.83
2022-12-01T08:01:09.628Z,266.13
2022-12-01T08:03:37.480Z,261.58
2022-12-01T08:06:05.811Z,263.83
2022-12-01T08:08:33.916Z,258.67
2022-12-01T08:11:03.716Z,252.18
2022-12-01T08:13:31.450Z,248.10
2022-12-01T08:15:59.243Z,245.88
2022-12-01T08:18:27.023Z,238.77
2022-12-01T08:20:57.879Z,244.23
2022-12-01T08:23:25.604Z,240.38
2022-12-01T08:25:53.909Z,239.30
2022-12-01T08:28:22.889Z,236.73
2022-12-01T08:30:50.688Z,231.35
2022-12-01T08:33:18.428Z,230.23
2022-12-01T08:35:46.524Z,226.10
2022-12-01T08:38:14.220Z,226.43
2022-12-01T08:40:42.030Z,218.93
2022-12-01T08:43:15.167Z,216.80
2022-12-01T08:45:52.023Z,217.23
2022-12-01T08:48:19.753Z,212.00
2022-12-01T08:50:47.398Z,213.35
2022-12-01T08:53:15.237Z,209.20
2022-12-01T08:55:42.897Z,210.27
2022-12-01T08:58:10.581Z,199.98
2022-12-01T09:00:38.228Z,198.25
2022-12-01T09:03:07.289Z,198.60
2022-12-01T09:05:34.997Z,194.75
2022-12-01T09:08:20.547Z,197.02
2022-12-01T09:10:52.190Z,196.00
2022-12-01T09:13:19.875Z,188.40
2022-12-01T09:15:55.899Z,181.25
2022-12-01T09:18:25.269Z,179.63
2022-12-01T09:20:52.963Z,178.57
2022-12-01T09:23:21.620Z,180.57
2022-12-01T09:25:49.592Z,179.90
2022-12-01T09:28:17.902Z,174.20
2022-12-01T09:30:45.640Z,170.90
2022-12-01T09:33:13.543Z,169.20
2022-12-01T09:35:42.553Z,162.13
2022-12-01T09:38:10.346Z,164.55
2022-12-01T09:40:39.257Z,166.95
2022-12-01T09:43:11.728Z,165.38
2022-12-01T09:45:44.078Z,159.38
2022-12-01T09:48:15.652Z,157.52
2022-12-01T09:50:44.630Z,158.70
2022-12-01T09:53:15.738Z,155.60
2022-12-01T09:55:44.100Z,152.70
2022-12-01T09:58:17.535Z,151.13
2022-12-01T10:00:45.263Z,149.65
2022-12-01T10:03:18.654Z,149.25
2022-12-01T10:06:18.453Z,145.07
2022-12-01T10:08:38.060Z,141.43
2022-12-01T10:11:09.397Z,140.55
2022-12-01T10:13:37.443Z,138.95
2022-12-01T10:16:08.139Z,136.73
2022-12-01T10:18:40.515Z,135.32
2022-12-01T10:21:12.018Z,134.63
2022-12-01T10:23:50.868Z,130.65
2022-12-01T10:26:23.247Z,126.57
2022-12-01T10:28:55.048Z,127.05
2022-12-01T10:31:26.947Z,126.82
2022-12-01T10:34:01.277Z,123.13
2022-12-01T10:36:31.093Z,123.05
2022-12-01T10:38:58.748Z,120.68
2022-12-01T10:41:27.083Z,120.38
2022-12-01T10:43:59.409Z,115.70
2022-12-01T10:46:28.630Z,113.85
2022-12-01T10:48:57.257Z,115.25
2022-12-01T10:51:25.273Z,113.82
2022-12-01T10:54:00.147Z,110.30
2022-12-01T10:56:27.914Z,107.47
2022-12-01T10:58:57.586Z,105.28
2022-12-01T11:01:26.375Z,107.38
2022-12-01T11:03:56.768Z,105.13
2022-12-01T11:06:26.175Z,103.40
2022-12-01T11:08:56.169Z,99.65
2022-12-01T11:11:30.853Z,98.65
2022-12-01T11:13:59.958Z,95.38
2022-12-01T11:16:42.002Z,96.38
2022-12-01T11:19:23.337Z,94.80
2022-12-01T11:21:55.333Z,91.38
2022-12-01T11:24:29.444Z,89.30
2022-12-01T11:26:58.717Z,89.57
2022-12-01T11:29:32.518Z,86.75
2022-12-01T11:32:00.201Z,85.90
2022-12-01T11:34:29.458Z,87.60
2022-12-01T11:36:57.819Z,82.43
2022-12-01T11:39:27.835Z,81.50
2022-12-01T11:41:56.228Z,81.13
2022-12-01T11:50:03.893Z,75.70
2022-12-01T11:52:32.585Z,74.32
2022-12-01T11:57:51.346Z,69.03
2022-12-01T12:00:21.920Z,71.93
2022-12-01T12:03:09.355Z,68.40
2022-12-01T12:05:45.359Z,66.93
2022-12-01T12:08:17.199Z,63.40
2022-12-01T12:10:47.859Z,65.47
2022-12-01T12:13:32.530Z,62.53
2022-12-01T12:16:03.876Z,62.42
2022-12-01T12:18:45.861Z,61.50
2022-12-01T12:21:20.484Z,57.25
2022-12-01T12:23:59.752Z,60.50
2022-12-01T12:26:28.675Z,54.83
2022-12-01T12:29:13.979Z,56.13
2022-12-01T12:31:49.054Z,55.15
2022-12-01T12:34:23.463Z,53.42
2022-12-01T12:36:57.435Z,52.13
2022-12-01T12:39:33.100Z,50.95
2022-12-01T12:42:00.778Z,48.72
2022-12-01T12:44:44.253Z,46.47
2022-12-01T12:47:20.848Z,45.97
2022-12-01T12:49:53.176Z,45.35
2022-12-01T12:52:22.791Z,42.83
2022-12-01T12:54:52.147Z,42.25
2022-12-01T12:57:24.118Z,39.97
2022-12-01T12:59:54.404Z,39.65
2022-12-01T13:02:26.856Z,40.13
2022-12-01T13:04:57.395Z,37.65
2022-12-01T13:07:32.265Z,36.83
2022-12-01T13:10:01.601Z,34.72
2022-12-01T13:12:30.603Z,33.10
2022-12-01T13:15:01.576Z,32.50
2022-12-01T13:17:33.240Z,30.38
2022-12-01T13:20:00.900Z,29.33
2022-12-01T13:22:31.369Z,31.27
2022-12-01T13:24:59.166Z,29.13
2022-12-01T13:27:27.605Z,28.02
2022-12-01T13:29:55.361Z,27.65
2022-12-01T13:32:31.318Z,31.10
2022-12-01T13:34:58.987Z,26.35
2022-12-01T13:37:27.304Z,24.98
2022-12-01T13:39:55.417Z,28.35
2022-12-01T13:42:24.539Z,25.70
2022-12-01T13:44:53.402Z,24.33
2022-12-01T13:47:40.085Z,20.92
2022-12-01T13:50:42.920Z,20.15
2022-12-01T13:53:12.714Z,20.33
2022-12-01T13:55:56.046Z,20.35
2022-12-01T13:58:26.229Z,21.55
2022-12-01T14:00:54.911Z,22.85
2022-12-01T14:03:37.939Z,21.10
2022-12-01T14:06:11.014Z,22.08
2022-12-01T14:08:40.895Z,22.77
2022-12-01T14:11:09.388Z,19.90
2022-12-01T14:13:45.239Z,32.70
2022-12-01T14:16:12.906Z,22.77
2022-12-01T14:18:43.961Z,18.23
2022-12-01T14:21:12.527Z,23.08
2022-12-01T14:23:41.730Z,18.95
2022-12-01T14:26:17.294Z,24.40
2022-12-01T14:29:14.862Z,15.98
2022-12-01T14:32:05.602Z,18.17
2022-12-01T14:34:35.132Z,21.65
2022-12-01T14:37:07.681Z,17.83
2022-12-01T14:39:36.263Z,15.40
2022-12-01T14:42:04.866Z,17.80
2022-12-01T14:44:35.055Z,19.10
2022-12-01T14:47:06.316Z,16.10
2022-12-01T14:49:38.225Z,16.50
2022-12-01T14:52:07.176Z,19.10
2022-12-01T14:54:40.361Z,24.90
2022-12-01T14:57:12.300Z,18.75
2022-12-01T14:59:42.854Z,20.00
2022-12-01T15:02:11.989Z,18.30
2022-12-01T15:05:08.344Z,24.38
2022-12-01T15:07:38.373Z,21.13
2022-12-01T15:10:07.270Z,19.73
2022-12-01T15:12:34.967Z,15.93
2022-12-01T15:15:02.632Z,19.08
2022-12-01T15:17:31.525Z,25.38
2022-12-01T15:19:59.397Z,19.65
2022-12-01T15:22:30.294Z,17.23
2022-12-01T15:25:06.781Z,16.45
2022-12-01T15:27:34.446Z,13.70
2022-12-01T15:30:04.204Z,17.67
2022-12-01T15:32:32.354Z,19.92
2022-12-01T15:35:01.758Z,27.83
2022-12-01T15:37:31.377Z,20.10
2022-12-01T15:43:01.719Z,20.67
2022-12-01T15:45:29.424Z,24.50
2022-12-01T15:47:59.193Z,21.70
2022-12-01T15:50:29.417Z,16.70
2022-12-01T15:52:58.634Z,27.30
2022-12-01T15:55:28.352Z,34.38
2022-12-01T15:57:56.101Z,18.55
2022-12-01T16:00:24.298Z,16.17
2022-12-01T16:02:52.438Z,21.10
2022-12-01T16:05:21.395Z,16.80
2022-12-01T16:10:38.175Z,9.73
2022-12-01T16:13:37.537Z,14.25
2022-12-01T16:16:20.747Z,14.80
2022-12-01T16:18:53.355Z,18.33
2022-12-01T16:21:21.059Z,16.40
2022-12-01T16:23:48.771Z,15.50
2022-12-01T16:26:17.818Z,14.27
2022-12-01T16:28:45.545Z,12.35
2022-12-01T16:31:19.320Z,14.02
2022-12-01T16:33:47.071Z,23.55
2022-12-01T16:36:15.083Z,14.75
2022-12-01T16:38:43.085Z,11.48
2022-12-01T16:41:19.227Z,13.15
2022-12-01T16:44:12.598Z,12.43
2022-12-01T16:46:35.123Z,14.25
2022-12-01T16:49:02.922Z,11.32
2022-12-01T16:51:54.350Z,12.70
2022-12-01T16:54:18.294Z,9.88
2022-12-01T16:56:47.303Z,12.68
2022-12-01T16:59:14.963Z,12.45
2022-12-01T17:01:42.851Z,11.75
2022-12-01T17:04:10.705Z,12.45
2022-12-01T17:06:39.182Z,16.67
2022-12-01T17:09:06.969Z,15.70
2022-12-01T17:11:34.654Z,12.63
2022-12-01T17:14:03.804Z,13.52
2022-12-01T17:16:31.590Z,20.23
2022-12-01T17:19:00.938Z,14.30
2022-12-01T17:21:28.909Z,13.73
2022-12-01T17:23:56.711Z,14.32
2022-12-01T17:26:24.559Z,17.17
2022-12-01T17:28:54.314Z,17.55
2022-12-01T17:31:23.410Z,15.23
2022-12-01T17:33:51.508Z,17.65
2022-12-01T17:36:19.517Z,17.95
2022-12-01T17:38:47.783Z,15.50
2022-12-01T17:41:17.212Z,17.63
2022-12-01T17:43:45.040Z,25.27
2022-12-01T17:46:13.078Z,18.13
2022-12-01T17:48:43.880Z,36.03
2022-12-01T17:51:11.746Z,16.00
2022-12-01T17:53:40.273Z,18.73
2022-12-01T17:56:09.019Z,20.13
2022-12-01T17:58:36.858Z,16.77
2022-12-01T18:01:04.661Z,18.08
2022-12-01T18:03:32.497Z,14.48
2022-12-01T18:06:02.331Z,22.92
2022-12-01T18:08:31.758Z,17.13
2022-12-01T18:11:02.012Z,20.02
2022-12-01T18:13:29.816Z,14.45
2022-12-01T18:15:57.578Z,14.80
2022-12-01T18:18:25.397Z,15.77
2022-12-01T18:20:53.165Z,18.45
2022-12-01T18:23:22.262Z,19.80
2022-12-01T18:25:49.988Z,11.80
2022-12-01T18:28:17.674Z,21.58
2022-12-01T18:30:46.369Z,18.08
2022-12-01T18:33:14.024Z,15.57
2022-12-01T18:35:44.727Z,19.42
2022-12-01T18:38:12.430Z,17.73
2022-12-01T18:40:41.501Z,19.20
2022-12-01T18:43:09.221Z,18.40
2022-12-01T18:45:39.809Z,18.40
2022-12-01T18:48:07.836Z,17.17
2022-12-01T18:50:35.594Z,15.77
2022-12-01T18:53:03.251Z,20.52
2022-12-01T18:55:30.927Z,52.63
2022-12-01T18:58:00.029Z,37.88
2022-12-01T19:00:27.755Z,31.08
2022-12-01T19:02:55.513Z,43.70
2022-12-01T19:05:23.366Z,25.92
2022-12-01T19:07:51.351Z,38.22
2022-12-01T19:10:19.138Z,42.00
2022-12-01T19:12:46.820Z,46.40
2022-12-01T19:15:15.898Z,64.30
2022-12-01T19:17:43.811Z,30.40
2022-12-01T19:20:12.932Z,46.97
2022-12-01T19:22:40.625Z,67.00
2022-12-01T19:25:11.175Z,46.72
2022-12-01T19:27:38.906Z,33.70
2022-12-01T19:30:08.141Z,41.47
2022-12-01T19:32:37.275Z,46.22
2022-12-01T19:35:06.080Z,34.13
2022-12-01T19:37:33.823Z,37.92
2022-12-01T19:40:01.638Z,47.85
2022-12-01T19:42:30.117Z,49.85
2022-12-01T19:45:01.199Z,41.10
2022-12-01T19:47:31.736Z,48.30
2022-12-01T19:50:01.276Z,36.45
2022-12-01T19:52:29.447Z,44.38
2022-12-01T19:54:57.307Z,40.38
2022-12-01T19:57:24.970Z,37.67
2022-12-01T19:59:52.669Z,49.03
2022-12-01T20:02:22.949Z,34.13
2022-12-01T20:04:54.496Z,39.08
2022-12-01T20:07:23.674Z,76.72
2022-12-01T20:09:51.407Z,40.20
2022-12-01T20:12:19.347Z,35.33
2022-12-01T20:14:47.285Z,35.63
2022-12-01T20:17:16.104Z,65.57
2022-12-01T20:19:43.908Z,45.75
2022-12-01T20:22:11.631Z,46.42
2022-12-01T20:24:41.869Z,41.05
2022-12-01T20:27:09.718Z,34.83
2022-12-01T20:29:37.437Z,41.22
2022-12-01T20:32:05.383Z,39.08
2022-12-01T20:34:34.868Z,31.08
2022-12-01T20:37:02.669Z,37.15
2022-12-01T20:39:31.373Z,47.35
2022-12-01T20:42:01.038Z,31.58
2022-12-01T20:44:29.214Z,33.70
2022-12-01T20:46:57.628Z,32.15
2022-12-01T20:49:25.322Z,27.70
2022-12-01T20:51:52.962Z,34.70
2022-12-01T20:54:29.562Z,29.52
2022-12-01T20:56:57.953Z,26.00
2022-12-01T20:59:27.094Z,29.30
2022-12-01T21:01:54.792Z,26.60
2022-12-01T21:04:22.547Z,24.90
2022-12-01T21:06:50.862Z,27.20
2022-12-01T21:09:18.567Z,23.42
2022-12-01T21:12:04.309Z,28.58
2022-12-01T21:14:36.760Z,24.55
2022-12-01T21:17:10.581Z,19.65
2022-12-01T21:19:42.995Z,23.13
2022-12-01T21:22:11.892Z,26.80
2022-12-01T21:24:43.841Z,22.95
2022-12-01T21:27:13.488Z,23.77
2022-12-01T21:29:43.161Z,19.15
2022-12-01T21:32:12.386Z,20.13
2022-12-01T21:34:40.076Z,22.85
2022-12-01T21:37:11.617Z,20.27
2022-12-01T21:39:40.329Z,18.58
2022-12-01T21:42:14.987Z,23.45
2022-12-01T21:44:44.262Z,18.17
2022-12-01T21:47:17.116Z,23.42
2022-12-01T21:49:45.534Z,20.13
2022-12-01T21:52:16.142Z,19.42
2022-12-01T21:54:43.863Z,22.85
2022-12-01T21:57:27.326Z,20.98
2022-12-01T21:59:58.580Z,21.27
2022-12-01T22:02:45.681Z,14.50
2022-12-01T22:05:24.668Z,16.38
2022-12-01T22:07:53.424Z,21.23
2022-12-01T22:10:56.199Z,17.83
2022-12-01T22:13:25.175Z,18.48
2022-12-01T22:15:55.005Z,16.98
2022-12-01T22:18:24.394Z,20.95
2022-12-01T22:20:52.309Z,19.38
2022-12-01T22:23:20.643Z,17.15
2022-12-01T22:25:49.560Z,16.65
2022-12-01T22:28:20.689Z,18.35
2022-12-01T22:30:48.839Z,19.02
2022-12-01T22:33:21.165Z,18.05
2022-12-01T22:35:49.399Z,18.77
2022-12-01T22:38:33.108Z,17.38
2022-12-01T22:41:03.560Z,16.58
2022-12-01T22:43:45.578Z,17.50
2022-12-01T22:46:24.593Z,17.65
2022-12-01T22:48:54.506Z,15.57
2022-12-01T22:51:36.208Z,18.35
2022-12-01T22:54:20.428Z,18.02
2022-12-01T22:56:49.023Z,15.60
2022-12-01T22:59:17.412Z,16.38
2022-12-01T23:01:49.494Z,18.73
2022-12-01T23:04:24.134Z,16.30
2022-12-01T23:07:08.406Z,15.18
2022-12-01T23:09:37.942Z,15.07
2022-12-01T23:12:28.865Z,15.07
2022-12-01T23:14:58.030Z,16.25
2022-12-01T23:17:27.446Z,15.30
2022-12-01T23:20:06.626Z,17.02
2022-12-01T23:22:34.323Z,17.25
2022-12-01T23:25:02.052Z,15.23
2022-12-01T23:27:29.761Z,15.15
2022-12-01T23:29:57.437Z,17.02
2022-12-01T23:32:25.086Z,14.65
2022-12-01T23:34:57.109Z,14.82
2022-12-01T23:37:33.590Z,14.82
2022-12-01T23:40:01.461Z,15.20
2022-12-01T23:42:29.134Z,15.63
2022-12-01T23:44:56.786Z,13.57
2022-12-01T23:47:25.851Z,15.05
2022-12-01T23:49:56.247Z,14.18
2022-12-01T23:52:34.591Z,14.57
2022-12-01T23:55:02.519Z,12.65
2022-12-01T23:57:31.111Z,14.85
